Bougainville Reef, Australia
Current Conditions -  °F | °C
As of 4:00 PM on Saturday 29 Nov 2014 (Local Time) from YBCS Reporting Station
Rain Showers Rain Showers  
Wind Chill: 81°   Ceiling: Unl
Heat Index: 84°   Visibility: 6mi
Dew Point: 70°   Wind: 17mph
Humidity: 70%   Direction: 110°ESE
Pressure: 29.8"   Gusts: NA
Location:  15.5°S, 147.12°E
Report Text: YBCS 290600Z 11015KT 9999 VCSH FEW030 SCT090 27/21 Q1009
Loading
Personal Weather Stations






























Interactive Weather Map New forecast layout! Learn more

10-Day Weather Forecast

Advertisements
Track Severe Weather on mobile